Time;durP1;ratioP1;P1;durP2;ratioP2;P2;SDS_P1;SDS_P2;PMS_P1;PMS_P2;Temp;Humidity;BMP_temperature;BMP_pressure;BME280_temperature;BME280_humidity;BME280_pressure;Samples;Min_cycle;Max_cycle;Signal;HPM_P1;HPM_P2
2022/10/10 00:01:19;;;;;;;8.30;8.10;;;10.00;99.90;;;;;;5099368;28;20312;-79
2022/10/10 00:03:47;;;;;;;8.60;8.40;;;10.00;99.90;;;;;;5099452;28;20229;-78
2022/10/10 00:06:15;;;;;;;8.70;8.50;;;9.90;99.90;;;;;;5098886;28;20229;-78
2022/10/10 00:08:43;;;;;;;8.70;8.50;;;9.90;99.90;;;;;;5099440;28;20233;-78
2022/10/10 00:11:12;;;;;;;8.67;8.47;;;9.80;99.90;;;;;;5099488;28;20239;-78
2022/10/10 00:13:41;;;;;;;8.70;8.50;;;9.80;99.90;;;;;;5099406;28;20285;-78
2022/10/10 00:16:12;;;;;;;9.10;8.80;;;9.70;99.90;;;;;;5098778;28;20217;-79
2022/10/10 00:18:42;;;;;;;8.83;8.63;;;9.70;99.90;;;;;;5099412;28;20233;-78
2022/10/10 00:21:11;;;;;;;8.80;8.60;;;9.60;99.90;;;;;;5099825;28;20234;-78
2022/10/10 00:23:39;;;;;;;8.80;8.60;;;9.60;99.90;;;;;;5099695;28;20237;-79
2022/10/10 00:26:08;;;;;;;8.70;8.50;;;9.60;99.90;;;;;;5103698;28;20229;-80
2022/10/10 00:28:37;;;;;;;8.50;8.30;;;9.50;99.90;;;;;;5103603;28;20229;-79
2022/10/10 00:31:05;;;;;;;8.53;8.33;;;9.50;99.90;;;;;;5098370;28;20320;-78
2022/10/10 00:33:34;;;;;;;8.70;8.50;;;9.50;99.90;;;;;;5099853;28;20237;-79
2022/10/10 00:36:02;;;;;;;8.80;8.60;;;9.40;99.90;;;;;;5101670;28;20316;-78
2022/10/10 00:38:31;;;;;;;8.63;8.43;;;9.40;99.90;;;;;;5101276;28;20229;-78
2022/10/10 00:40:59;;;;;;;8.53;8.33;;;9.40;99.90;;;;;;5101854;28;20269;-78
2022/10/10 00:43:28;;;;;;;8.37;8.17;;;9.40;99.90;;;;;;5101599;28;20239;-79
2022/10/10 00:45:56;;;;;;;8.43;8.23;;;9.40;99.90;;;;;;5100897;28;20231;-78
2022/10/10 00:48:31;;;;;;;8.50;8.30;;;9.40;99.90;;;;;;5102139;28;20313;-79
2022/10/10 00:51:05;;;;;;;8.47;8.27;;;9.40;99.90;;;;;;5101831;28;20231;-79
2022/10/10 00:53:38;;;;;;;9.00;8.80;;;9.40;99.90;;;;;;5101625;28;21138;-78
2022/10/10 00:56:07;;;;;;;9.20;8.90;;;9.40;99.90;;;;;;5102359;28;20224;-79
2022/10/10 00:58:36;;;;;;;9.13;8.83;;;9.40;99.90;;;;;;5106551;28;20229;-78
2022/10/10 01:01:03;;;;;;;8.90;8.70;;;9.40;99.90;;;;;;5102812;28;20240;-78
2022/10/10 01:03:31;;;;;;;9.13;8.83;;;9.40;99.90;;;;;;5102315;28;20348;-78
2022/10/10 01:06:00;;;;;;;9.00;8.73;;;9.40;99.90;;;;;;5102224;28;20234;-80
2022/10/10 01:08:29;;;;;;;9.10;8.80;;;9.40;99.90;;;;;;5103154;28;20227;-78
2022/10/10 01:11:12;;;;;;;8.80;8.60;;;9.40;99.90;;;;;;5102237;28;20233;-78
2022/10/10 01:13:52;;;;;;;9.13;8.83;;;9.40;99.90;;;;;;5102442;28;20237;-78
2022/10/10 01:16:29;;;;;;;8.80;8.60;;;9.40;99.90;;;;;;5101598;28;20294;-78
2022/10/10 01:19:07;;;;;;;9.10;8.80;;;9.40;99.90;;;;;;5101618;28;20225;-79
2022/10/10 01:21:46;;;;;;;9.17;8.87;;;9.40;99.90;;;;;;5109305;28;20239;-79
2022/10/10 01:24:46;;;;;;;9.10;8.80;;;9.40;99.90;;;;;;5122121;28;20213;-78
2022/10/10 01:27:30;;;;;;;8.70;8.50;;;9.40;99.90;;;;;;5122242;28;20224;-79
2022/10/10 01:30:07;;;;;;;8.80;8.60;;;9.40;99.90;;;;;;5122699;28;20316;-78
2022/10/10 01:32:40;;;;;;;9.10;8.80;;;9.30;99.90;;;;;;5122681;28;20286;-79
2022/10/10 01:35:28;;;;;;;9.23;8.93;;;9.30;99.90;;;;;;5121962;28;20236;-79
2022/10/10 01:38:08;;;;;;;9.27;8.97;;;9.30;99.90;;;;;;5122119;28;20221;-78
2022/10/10 01:40:46;;;;;;;9.20;8.90;;;9.30;99.90;;;;;;5122524;28;20766;-79
2022/10/10 01:43:15;;;;;;;9.13;8.83;;;9.30;99.90;;;;;;5123104;28;20237;-79
2022/10/10 01:45:49;;;;;;;9.40;9.10;;;9.30;99.90;;;;;;5122509;27;20251;-79
2022/10/10 01:48:21;;;;;;;9.10;8.80;;;9.20;99.90;;;;;;5131899;27;20271;-79
2022/10/10 01:51:23;;;;;;;9.27;8.97;;;9.20;99.90;;;;;;5143533;27;20277;-78
2022/10/10 01:54:06;;;;;;;9.13;8.83;;;9.20;99.90;;;;;;5144232;27;20231;-78
2022/10/10 01:56:40;;;;;;;9.00;8.70;;;9.20;99.90;;;;;;5143977;27;20272;-79
2022/10/10 01:59:20;;;;;;;9.20;8.90;;;9.10;99.90;;;;;;5143052;27;20248;-78
2022/10/10 02:01:57;;;;;;;8.80;8.60;;;9.10;99.90;;;;;;5141362;27;20250;-78
2022/10/10 02:04:34;;;;;;;9.00;8.70;;;9.00;99.90;;;;;;5142746;27;20272;-78
2022/10/10 02:07:07;;;;;;;9.00;8.70;;;9.00;99.90;;;;;;5142392;27;20235;-78
2022/10/10 02:09:38;;;;;;;9.10;8.80;;;9.00;99.90;;;;;;5141021;27;20217;-78
2022/10/10 02:12:10;;;;;;;8.70;8.50;;;9.00;99.90;;;;;;5138099;28;20267;-78
2022/10/10 02:14:42;;;;;;;8.73;8.53;;;8.90;99.90;;;;;;5137765;28;20225;-78
2022/10/10 02:17:14;;;;;;;8.73;8.53;;;8.90;99.90;;;;;;5138939;28;20273;-78
2022/10/10 02:19:47;;;;;;;8.70;8.50;;;8.90;99.90;;;;;;5123723;28;20240;-79
2022/10/10 02:22:15;;;;;;;8.60;8.40;;;8.90;99.90;;;;;;5121348;28;20233;-80
2022/10/10 02:24:44;;;;;;;8.53;8.33;;;8.90;99.90;;;;;;5087127;28;20941;-79
2022/10/10 02:27:19;;;;;;;8.50;8.30;;;8.80;99.90;;;;;;5079603;28;20238;-79
2022/10/10 02:29:51;;;;;;;8.50;8.30;;;8.80;99.90;;;;;;5080184;28;20229;-79
2022/10/10 02:32:28;;;;;;;8.90;8.70;;;8.80;99.90;;;;;;5079733;28;20315;-78
2022/10/10 02:35:00;;;;;;;8.57;8.37;;;8.80;99.90;;;;;;5080142;28;20229;-78
2022/10/10 02:37:28;;;;;;;8.83;8.63;;;8.70;99.90;;;;;;5079543;28;20233;-78
2022/10/10 02:40:02;;;;;;;8.80;8.60;;;8.70;99.90;;;;;;5079644;28;20254;-78
2022/10/10 02:42:30;;;;;;;8.80;8.60;;;8.70;99.90;;;;;;5082410;28;20245;-79
2022/10/10 02:44:58;;;;;;;8.80;8.60;;;8.70;99.90;;;;;;5086188;28;20228;-79
2022/10/10 02:47:28;;;;;;;8.80;8.60;;;8.60;99.90;;;;;;5087149;28;20238;-78
2022/10/10 02:49:55;;;;;;;8.90;8.70;;;8.60;99.90;;;;;;5098220;28;20194;-78
2022/10/10 02:52:24;;;;;;;8.83;8.63;;;8.60;99.90;;;;;;5100828;28;20249;-78
2022/10/10 02:54:51;;;;;;;8.70;8.50;;;8.60;99.90;;;;;;5100431;28;20270;-78
2022/10/10 02:57:19;;;;;;;8.60;8.40;;;8.60;99.90;;;;;;5099865;28;20218;-78
2022/10/10 02:59:46;;;;;;;8.80;8.60;;;8.50;99.90;;;;;;5091236;28;20228;-78
2022/10/10 03:02:14;;;;;;;9.10;8.80;;;8.50;99.90;;;;;;5082375;28;20242;-78
2022/10/10 03:04:45;;;;;;;8.70;8.50;;;8.40;99.90;;;;;;5082244;28;20261;-78
2022/10/10 03:07:13;;;;;;;8.53;8.33;;;8.50;99.90;;;;;;5081424;28;20236;-78
2022/10/10 03:09:41;;;;;;;8.67;8.47;;;8.40;99.90;;;;;;5081312;28;20229;-78
2022/10/10 03:12:08;;;;;;;8.67;8.47;;;8.40;99.90;;;;;;5081494;28;20252;-79
2022/10/10 03:14:36;;;;;;;8.60;8.40;;;8.40;99.90;;;;;;5080144;28;20329;-78
2022/10/10 03:17:03;;;;;;;8.73;8.53;;;8.30;99.90;;;;;;5080849;28;20230;-79
2022/10/10 03:19:31;;;;;;;8.70;8.50;;;8.30;99.90;;;;;;5081565;28;20222;-78
2022/10/10 03:22:00;;;;;;;8.50;8.30;;;8.30;99.90;;;;;;5080561;28;20265;-78
2022/10/10 03:24:27;;;;;;;8.70;8.50;;;8.20;99.90;;;;;;5080112;28;20301;-78
2022/10/10 03:26:55;;;;;;;9.10;8.80;;;8.20;99.90;;;;;;5080161;28;20262;-78
2022/10/10 03:29:22;;;;;;;8.53;8.33;;;8.20;99.90;;;;;;5080672;28;20233;-78
2022/10/10 03:31:50;;;;;;;8.77;8.57;;;8.20;99.90;;;;;;5082078;28;20240;-79
2022/10/10 03:34:18;;;;;;;8.53;8.33;;;8.20;99.90;;;;;;5083969;28;20264;-78
2022/10/10 03:36:45;;;;;;;8.30;8.10;;;8.10;99.90;;;;;;5081333;28;20230;-78
2022/10/10 03:39:14;;;;;;;8.50;8.30;;;8.10;99.90;;;;;;5079857;28;20214;-78
2022/10/10 03:41:41;;;;;;;8.30;8.10;;;8.10;99.90;;;;;;5079497;28;20276;-79
2022/10/10 03:44:09;;;;;;;8.80;8.60;;;8.00;99.90;;;;;;5079586;28;20240;-79
2022/10/10 03:46:37;;;;;;;8.50;8.30;;;8.00;99.90;;;;;;5078051;28;20359;-79
2022/10/10 03:49:04;;;;;;;8.50;8.30;;;8.00;99.90;;;;;;5079414;28;20232;-78
2022/10/10 03:51:32;;;;;;;8.30;8.10;;;7.90;99.90;;;;;;5078035;28;20240;-78
2022/10/10 03:54:00;;;;;;;8.20;8.00;;;7.90;99.90;;;;;;5079397;28;20233;-79
2022/10/10 03:56:28;;;;;;;8.53;8.33;;;7.90;99.90;;;;;;5078816;28;20241;-79
2022/10/10 03:58:59;;;;;;;8.53;8.33;;;7.90;99.90;;;;;;5079104;28;20279;-80
2022/10/10 04:01:27;;;;;;;8.47;8.27;;;7.90;99.90;;;;;;5079122;28;20257;-78
2022/10/10 04:03:54;;;;;;;8.80;8.60;;;7.90;99.90;;;;;;5079728;28;20234;-79
2022/10/10 04:06:22;;;;;;;9.03;8.73;;;7.90;99.90;;;;;;5079013;28;20237;-80
2022/10/10 04:08:50;;;;;;;8.93;8.70;;;7.90;99.90;;;;;;5078785;28;20240;-78
2022/10/10 04:11:17;;;;;;;9.00;8.70;;;7.90;99.90;;;;;;5079168;28;20226;-79
2022/10/10 04:13:46;;;;;;;9.27;8.97;;;7.90;99.90;;;;;;5080387;28;20238;-78
2022/10/10 04:16:14;;;;;;;9.20;8.90;;;7.90;99.90;;;;;;5079903;28;20273;-80
2022/10/10 04:18:41;;;;;;;8.90;8.60;;;7.80;99.90;;;;;;5079877;28;20317;-79
2022/10/10 04:21:09;;;;;;;9.20;8.90;;;7.80;99.90;;;;;;5079843;28;20304;-78
2022/10/10 04:23:37;;;;;;;9.00;8.70;;;7.90;99.90;;;;;;5079854;28;20230;-79
2022/10/10 04:26:05;;;;;;;8.80;8.60;;;7.80;99.90;;;;;;5078350;28;20236;-78
2022/10/10 04:28:32;;;;;;;8.63;8.43;;;7.80;99.90;;;;;;5079417;28;20294;-78
2022/10/10 04:31:02;;;;;;;8.50;8.30;;;7.80;99.90;;;;;;5079858;28;21063;-79
2022/10/10 04:33:31;;;;;;;8.27;8.07;;;7.80;99.90;;;;;;5079725;28;20249;-78
2022/10/10 04:35:58;;;;;;;8.80;8.60;;;7.80;99.90;;;;;;5079351;28;20250;-79
2022/10/10 04:38:26;;;;;;;8.70;8.50;;;7.80;99.90;;;;;;5082751;28;20253;-78
2022/10/10 04:40:55;;;;;;;8.67;8.47;;;7.80;99.90;;;;;;5079554;28;20240;-81
2022/10/10 04:43:23;;;;;;;8.40;8.20;;;7.90;99.90;;;;;;5080391;28;20261;-78
2022/10/10 04:45:51;;;;;;;8.60;8.40;;;7.90;99.90;;;;;;5085648;28;20258;-80
2022/10/10 04:48:21;;;;;;;8.43;8.23;;;7.90;99.90;;;;;;5082378;28;20246;-79
2022/10/10 04:50:52;;;;;;;8.87;8.67;;;7.90;99.90;;;;;;5081971;28;20272;-80
2022/10/10 04:53:20;;;;;;;8.60;8.40;;;8.00;99.90;;;;;;5082506;28;20262;-80
2022/10/10 04:55:48;;;;;;;8.37;8.17;;;7.90;99.90;;;;;;5081078;28;20273;-78
2022/10/10 04:58:16;;;;;;;8.17;7.97;;;7.90;99.90;;;;;;5078608;28;20230;-78
2022/10/10 05:00:43;;;;;;;8.13;7.93;;;8.00;99.90;;;;;;5078091;28;20230;-78
2022/10/10 05:03:11;;;;;;;8.10;7.90;;;8.00;99.90;;;;;;5078347;28;20749;-79
2022/10/10 05:05:40;;;;;;;8.10;7.90;;;8.00;99.90;;;;;;5078393;28;20237;-78
2022/10/10 05:08:08;;;;;;;8.20;8.00;;;8.00;99.90;;;;;;5079889;28;20268;-78
2022/10/10 05:10:37;;;;;;;8.00;7.80;;;8.00;99.90;;;;;;5085539;28;20230;-78
2022/10/10 05:13:05;;;;;;;8.40;8.20;;;8.00;99.90;;;;;;5096331;28;20265;-78
2022/10/10 05:15:35;;;;;;;8.30;8.10;;;8.00;99.90;;;;;;5078049;28;20283;-78
2022/10/10 05:18:03;;;;;;;8.73;8.53;;;8.00;99.90;;;;;;5080242;28;20249;-78
2022/10/10 05:20:32;;;;;;;8.70;8.50;;;8.00;99.90;;;;;;5083448;28;20232;-79
2022/10/10 05:23:01;;;;;;;8.80;8.60;;;8.00;99.90;;;;;;5086792;28;20234;-78
2022/10/10 05:25:29;;;;;;;8.80;8.60;;;8.10;99.90;;;;;;5094117;28;20322;-78
2022/10/10 05:27:56;;;;;;;9.10;8.80;;;8.10;99.90;;;;;;5098969;28;20210;-77
2022/10/10 05:30:24;;;;;;;9.27;8.97;;;8.10;99.90;;;;;;5100057;28;20236;-77
2022/10/10 05:32:52;;;;;;;9.03;8.73;;;8.10;99.90;;;;;;5099876;28;20233;-78
2022/10/10 05:35:19;;;;;;;9.20;8.90;;;8.10;99.90;;;;;;5099475;28;20240;-77
2022/10/10 05:37:47;;;;;;;9.10;8.80;;;8.10;99.90;;;;;;5098466;28;20218;-79
2022/10/10 05:40:16;;;;;;;9.20;8.90;;;8.10;99.90;;;;;;5097964;28;20226;-77
2022/10/10 05:42:43;;;;;;;8.60;8.40;;;8.20;99.90;;;;;;5100691;28;20237;-77
2022/10/10 05:45:11;;;;;;;9.10;8.80;;;8.20;99.90;;;;;;5100232;28;20232;-78
2022/10/10 05:47:38;;;;;;;8.53;8.33;;;8.20;99.90;;;;;;5099992;28;20218;-79
2022/10/10 05:50:08;;;;;;;9.00;8.80;;;8.20;99.90;;;;;;5100130;28;20404;-78
2022/10/10 05:52:36;;;;;;;8.40;8.20;;;8.30;99.90;;;;;;5100356;28;20226;-78
2022/10/10 05:55:04;;;;;;;8.57;8.37;;;8.40;99.90;;;;;;5098194;28;20245;-80
2022/10/10 05:57:32;;;;;;;8.60;8.40;;;8.40;99.90;;;;;;5098629;28;20290;-77
2022/10/10 06:00:00;;;;;;;8.80;8.60;;;8.50;99.90;;;;;;5099614;28;20293;-79
2022/10/10 06:02:28;;;;;;;8.50;8.30;;;8.50;99.90;;;;;;5100757;28;20261;-81
2022/10/10 06:04:55;;;;;;;8.73;8.53;;;8.50;99.90;;;;;;5100452;28;20234;-80
2022/10/10 06:07:23;;;;;;;8.67;8.47;;;8.50;99.90;;;;;;5101949;28;20210;-78
2022/10/10 06:09:50;;;;;;;8.77;8.57;;;8.60;99.90;;;;;;5124808;27;20249;-81
2022/10/10 06:12:18;;;;;;;9.20;8.90;;;8.60;99.90;;;;;;5139063;27;20256;-79
2022/10/10 06:14:47;;;;;;;8.70;8.50;;;8.60;99.90;;;;;;5134507;28;20292;-79
2022/10/10 06:17:14;;;;;;;8.73;8.53;;;8.60;99.90;;;;;;5139626;28;20205;-79
2022/10/10 06:19:42;;;;;;;8.67;8.47;;;8.60;99.90;;;;;;5125851;28;20262;-79
2022/10/10 06:22:09;;;;;;;9.00;8.70;;;8.60;99.90;;;;;;5121429;28;20247;-79
2022/10/10 06:24:37;;;;;;;8.77;8.57;;;8.60;99.90;;;;;;5126431;28;20233;-79
2022/10/10 06:27:04;;;;;;;8.60;8.40;;;8.60;99.90;;;;;;5124483;28;20286;-79
2022/10/10 06:29:32;;;;;;;8.67;8.47;;;8.60;99.90;;;;;;5121082;28;20243;-79
2022/10/10 06:32:00;;;;;;;8.77;8.57;;;8.70;99.90;;;;;;5126981;27;20259;-79
2022/10/10 06:34:28;;;;;;;8.83;8.63;;;8.70;99.90;;;;;;5120503;28;20236;-79
2022/10/10 06:36:55;;;;;;;8.83;8.63;;;8.70;99.90;;;;;;5126788;28;20229;-79
2022/10/10 06:39:23;;;;;;;8.70;8.50;;;8.70;99.90;;;;;;5124778;28;20239;-79
2022/10/10 06:41:50;;;;;;;8.80;8.60;;;8.70;99.90;;;;;;5122199;28;20235;-80
2022/10/10 06:44:19;;;;;;;9.27;8.97;;;8.80;99.90;;;;;;5119755;28;20266;-79
2022/10/10 06:46:46;;;;;;;9.20;8.90;;;8.80;99.90;;;;;;5119251;28;20228;-79
2022/10/10 06:49:15;;;;;;;9.20;8.90;;;8.90;99.90;;;;;;5120460;28;20244;-79
2022/10/10 06:51:42;;;;;;;8.70;8.50;;;8.90;99.90;;;;;;5119686;28;20232;-80
2022/10/10 06:54:10;;;;;;;8.90;8.70;;;9.00;99.90;;;;;;5119928;28;20244;-79
2022/10/10 06:56:38;;;;;;;8.90;8.70;;;9.00;99.90;;;;;;5119058;28;20225;-79
2022/10/10 06:59:06;;;;;;;8.73;8.53;;;9.00;99.90;;;;;;5120641;28;20224;-79
2022/10/10 07:01:33;;;;;;;8.97;8.77;;;9.00;99.90;;;;;;5119245;28;20286;-79
2022/10/10 07:04:01;;;;;;;8.93;8.70;;;9.10;99.90;;;;;;5120579;28;20233;-80
2022/10/10 07:06:30;;;;;;;8.80;8.60;;;9.10;99.90;;;;;;5119537;28;20228;-79
2022/10/10 07:08:57;;;;;;;8.50;8.30;;;9.10;99.90;;;;;;5119935;28;20243;-80
2022/10/10 07:11:25;;;;;;;8.70;8.50;;;9.10;99.90;;;;;;5120407;28;20239;-81
2022/10/10 07:13:53;;;;;;;8.63;8.43;;;9.10;99.90;;;;;;5120534;28;20232;-79
2022/10/10 07:16:20;;;;;;;8.50;8.30;;;9.20;99.90;;;;;;5119745;28;20217;-80
2022/10/10 07:18:48;;;;;;;8.60;8.40;;;9.20;99.90;;;;;;5120695;28;20229;-82
2022/10/10 07:21:15;;;;;;;8.50;8.30;;;9.30;99.90;;;;;;5119893;28;20300;-80
2022/10/10 07:23:44;;;;;;;8.67;8.47;;;9.30;99.90;;;;;;5120093;28;20271;-80
2022/10/10 07:26:15;;;;;;;9.30;9.00;;;9.40;99.90;;;;;;5119601;28;20213;-79
2022/10/10 07:28:43;;;;;;;8.70;8.50;;;9.40;99.90;;;;;;5121263;28;20228;-80
2022/10/10 07:31:11;;;;;;;8.83;8.63;;;9.50;99.90;;;;;;5120171;28;20236;-81
2022/10/10 07:33:42;;;;;;;9.20;8.90;;;9.60;99.90;;;;;;5120117;28;20231;-80
2022/10/10 07:36:09;;;;;;;9.17;8.87;;;9.60;99.90;;;;;;5120282;28;20225;-80
2022/10/10 07:38:38;;;;;;;9.40;9.10;;;9.80;99.90;;;;;;5120281;28;20232;-80
2022/10/10 07:41:08;;;;;;;9.40;9.10;;;9.90;99.90;;;;;;5120225;28;20990;-80
2022/10/10 07:43:37;;;;;;;9.60;9.30;;;10.10;99.90;;;;;;5119697;28;20237;-81
2022/10/10 07:46:05;;;;;;;9.23;8.93;;;10.20;99.90;;;;;;5118655;28;20229;-81
2022/10/10 07:48:33;;;;;;;9.10;8.80;;;10.40;99.90;;;;;;5120322;28;20308;-80
2022/10/10 07:51:00;;;;;;;9.10;8.80;;;10.50;99.90;;;;;;5119703;28;20233;-81
2022/10/10 07:53:28;;;;;;;9.20;8.90;;;10.70;99.90;;;;;;5119552;28;20235;-81
2022/10/10 07:55:55;;;;;;;9.40;9.10;;;10.90;99.90;;;;;;5119177;28;20223;-80
2022/10/10 07:58:24;;;;;;;9.30;9.00;;;11.00;99.90;;;;;;5119579;28;20233;-80
2022/10/10 08:00:51;;;;;;;9.20;8.90;;;11.10;99.90;;;;;;5119627;28;20256;-80
2022/10/10 08:03:19;;;;;;;8.97;8.77;;;11.20;99.90;;;;;;5120407;28;20356;-80
2022/10/10 08:05:46;;;;;;;9.13;8.87;;;11.20;99.90;;;;;;5120472;28;20225;-80
2022/10/10 08:08:14;;;;;;;8.93;8.73;;;11.30;99.90;;;;;;5119452;28;20233;-81
2022/10/10 08:10:44;;;;;;;9.40;9.10;;;11.30;99.90;;;;;;5119542;28;20232;-80
2022/10/10 08:13:11;;;;;;;9.80;9.50;;;11.40;99.90;;;;;;5119864;28;20245;-80
2022/10/10 08:15:41;;;;;;;9.63;9.33;;;11.50;99.90;;;;;;5119468;28;20286;-81
2022/10/10 08:18:09;;;;;;;9.50;9.20;;;11.60;99.90;;;;;;5119255;28;20251;-81
2022/10/10 08:20:36;;;;;;;9.90;9.60;;;11.70;99.90;;;;;;5076031;28;20321;-81
2022/10/10 08:23:05;;;;;;;9.80;9.50;;;11.70;99.90;;;;;;5078455;28;20254;-81
2022/10/10 08:25:32;;;;;;;9.50;9.20;;;11.80;99.90;;;;;;5082644;28;20214;-80
2022/10/10 08:28:00;;;;;;;9.47;9.17;;;12.00;99.90;;;;;;5078801;28;20290;-80
2022/10/10 08:30:28;;;;;;;9.50;9.20;;;12.10;99.90;;;;;;5078630;28;20226;-81
2022/10/10 08:32:57;;;;;;;9.70;9.40;;;12.20;99.90;;;;;;5078672;28;20226;-81
2022/10/10 08:35:25;;;;;;;9.73;9.43;;;12.50;99.90;;;;;;5082424;28;20212;-78
2022/10/10 08:37:53;;;;;;;9.93;9.63;;;12.60;99.90;;;;;;5097543;28;20244;-80
2022/10/10 08:40:27;;;;;;;9.90;9.60;;;12.80;99.90;;;;;;5098992;28;20210;-81
2022/10/10 08:42:57;;;;;;;9.60;9.30;;;12.90;99.90;;;;;;5099334;28;20257;-79
2022/10/10 08:45:27;;;;;;;8.97;8.77;;;13.10;99.90;;;;;;5099118;28;20246;-78
2022/10/10 08:48:01;;;;;;;9.50;9.20;;;13.30;99.90;;;;;;5099604;28;20213;-78
2022/10/10 08:50:33;;;;;;;9.27;8.97;;;13.60;99.90;;;;;;5099237;28;20237;-79
2022/10/10 08:53:06;;;;;;;9.30;9.00;;;13.80;99.90;;;;;;5099135;28;20233;-80
2022/10/10 08:55:37;;;;;;;9.30;9.00;;;14.00;99.90;;;;;;5101314;28;20218;-80
2022/10/10 08:58:12;;;;;;;9.30;9.00;;;14.20;99.90;;;;;;5102830;28;20248;-80
2022/10/10 09:00:46;;;;;;;9.20;8.90;;;14.30;99.90;;;;;;5100162;28;20245;-81
2022/10/10 09:03:24;;;;;;;9.60;9.30;;;14.50;99.90;;;;;;5097260;28;20244;-79
2022/10/10 09:06:10;;;;;;;9.50;9.20;;;14.60;99.90;;;;;;5124397;27;20220;-79
2022/10/10 09:08:49;;;;;;;9.70;9.40;;;14.60;99.90;;;;;;5116228;28;20237;-79
2022/10/10 09:11:32;;;;;;;9.40;9.10;;;14.50;99.90;;;;;;5121579;28;20228;-78
2022/10/10 09:14:13;;;;;;;9.40;9.10;;;14.60;99.90;;;;;;5111044;28;20324;-78
2022/10/10 09:16:48;;;;;;;9.48;9.18;;;14.90;99.90;;;;;;5101304;28;20256;-80
2022/10/10 09:19:33;;;;;;;9.80;9.50;;;15.30;99.90;;;;;;5112473;28;20283;-78
2022/10/10 09:22:09;;;;;;;9.73;9.43;;;15.50;99.90;;;;;;5108395;28;20239;-77
2022/10/10 09:24:43;;;;;;;9.68;9.38;;;15.70;99.90;;;;;;5108114;28;20229;-77
2022/10/10 09:27:16;;;;;;;9.50;9.20;;;15.80;99.90;;;;;;5119705;28;20225;-78
2022/10/10 09:29:49;;;;;;;9.60;9.30;;;15.90;99.90;;;;;;5117380;28;20301;-78
2022/10/10 09:32:22;;;;;;;9.50;9.20;;;15.80;99.90;;;;;;5111637;28;20236;-78
2022/10/10 09:34:57;;;;;;;9.68;9.38;;;15.90;99.90;;;;;;5099234;28;20233;-78
2022/10/10 09:37:32;;;;;;;9.50;9.20;;;15.90;99.90;;;;;;5100372;28;20235;-79
2022/10/10 09:40:03;;;;;;;9.50;9.20;;;16.00;99.90;;;;;;5102122;28;20236;-79
2022/10/10 09:42:36;;;;;;;9.32;9.02;;;16.20;99.90;;;;;;5102112;28;20261;-78
2022/10/10 09:45:18;;;;;;;9.40;9.10;;;16.20;99.90;;;;;;5100715;28;20225;-79
2022/10/10 09:47:46;;;;;;;9.60;9.30;;;16.20;99.90;;;;;;5104869;28;20229;-78
2022/10/10 09:50:16;;;;;;;9.90;9.60;;;16.30;99.90;;;;;;5099375;28;20236;-79
2022/10/10 09:52:46;;;;;;;9.38;9.07;;;16.40;99.90;;;;;;5095928;28;20237;-78
2022/10/10 09:55:26;;;;;;;9.80;9.50;;;16.50;99.90;;;;;;5077514;28;20234;-77
2022/10/10 09:57:55;;;;;;;9.80;9.50;;;16.80;99.90;;;;;;5088586;28;20228;-78
2022/10/10 10:00:29;;;;;;;9.68;9.38;;;17.10;99.90;;;;;;5107183;28;20260;-78
2022/10/10 10:03:10;;;;;;;9.98;9.68;;;17.40;99.90;;;;;;5095723;28;20236;-78
2022/10/10 10:05:41;;;;;;;10.20;9.90;;;17.80;99.90;;;;;;5097638;28;20281;-77
2022/10/10 10:08:22;;;;;;;10.38;10.07;;;18.00;99.90;;;;;;5098551;28;20265;-77
2022/10/10 10:10:50;;;;;;;10.20;9.90;;;18.00;99.90;;;;;;5088486;28;20242;-77
2022/10/10 10:13:24;;;;;;;10.18;9.88;;;18.30;99.90;;;;;;5098304;28;20229;-78
2022/10/10 10:16:08;;;;;;;10.40;10.10;;;18.50;99.90;;;;;;5098449;28;20218;-77
2022/10/10 10:18:41;;;;;;;9.77;9.48;;;18.60;99.90;;;;;;5098507;28;20237;-78
2022/10/10 10:21:19;;;;;;;9.82;9.52;;;18.70;99.90;;;;;;5100311;28;20240;-80
2022/10/10 10:23:56;;;;;;;10.00;9.70;;;18.60;99.90;;;;;;5111738;28;20296;-80
2022/10/10 10:26:27;;;;;;;9.77;9.48;;;18.60;99.90;;;;;;5077838;28;20297;-78
2022/10/10 10:28:57;;;;;;;9.90;9.60;;;18.50;99.90;;;;;;5079195;28;20234;-79
2022/10/10 10:31:53;;;;;;;9.80;9.50;;;18.40;99.90;;;;;;5079753;28;20230;-79
2022/10/10 10:34:52;;;;;;;9.75;9.45;;;18.10;99.90;;;;;;5079152;28;20230;-80
2022/10/10 10:37:27;;;;;;;9.60;9.30;;;18.00;99.90;;;;;;5079384;28;20318;-80
2022/10/10 10:40:28;;;;;;;9.80;9.50;;;17.80;99.90;;;;;;5079117;28;20226;-78
2022/10/10 10:43:40;;;;;;;10.35;10.05;;;17.60;99.90;;;;;;5078921;28;20244;-80
2022/10/10 10:46:16;;;;;;;10.40;10.10;;;17.50;99.90;;;;;;5106953;28;20231;-80
2022/10/10 10:48:47;;;;;;;10.23;9.93;;;17.80;99.90;;;;;;5107852;28;20222;-80
2022/10/10 10:51:49;;;;;;;10.60;10.30;;;18.00;99.90;;;;;;5117305;28;20217;-82
2022/10/10 10:54:38;;;;;;;10.55;10.25;;;18.30;99.90;;;;;;5111900;28;20235;-79
2022/10/10 10:57:15;;;;;;;10.60;10.30;;;18.60;99.90;;;;;;5120218;28;20255;-80
2022/10/10 11:00:00;;;;;;;10.57;10.27;;;18.90;99.90;;;;;;5120650;28;20227;-80
2022/10/10 11:02:40;;;;;;;10.70;10.40;;;19.10;99.90;;;;;;5101986;28;20301;-81
2022/10/10 11:05:37;;;;;;;10.63;10.32;;;19.30;99.90;;;;;;5110545;28;20263;-83
2022/10/10 11:08:24;;;;;;;10.50;10.20;;;19.70;99.90;;;;;;5121704;28;20258;-84
2022/10/10 11:11:08;;;;;;;10.15;9.85;;;19.80;99.90;;;;;;5121246;28;20228;-82
2022/10/10 11:13:45;;;;;;;10.23;9.93;;;19.80;99.90;;;;;;5123364;28;20304;-80
2022/10/10 11:16:21;;;;;;;10.48;10.18;;;20.30;99.90;;;;;;5123495;28;20236;-79
2022/10/10 11:19:05;;;;;;;10.30;10.00;;;20.60;99.90;;;;;;5122439;28;20239;-79
2022/10/10 11:21:34;;;;;;;10.50;10.20;;;20.70;99.90;;;;;;5123146;28;20239;-80
2022/10/10 11:24:10;;;;;;;10.40;10.10;;;20.90;99.90;;;;;;5126025;28;20217;-81
2022/10/10 11:26:48;;;;;;;10.55;10.25;;;21.10;99.90;;;;;;5123412;28;20244;-80
2022/10/10 11:29:21;;;;;;;10.60;10.30;;;21.20;99.90;;;;;;5124221;28;20244;-80
2022/10/10 11:31:57;;;;;;;10.10;9.80;;;21.10;99.90;;;;;;5122180;28;20236;-81
2022/10/10 11:34:33;;;;;;;10.40;10.10;;;20.70;99.90;;;;;;5099490;28;20252;-79
2022/10/10 11:37:07;;;;;;;10.13;9.82;;;20.20;99.90;;;;;;5124925;28;20258;-80
2022/10/10 11:39:42;;;;;;;9.80;9.50;;;19.90;99.90;;;;;;5109376;28;20320;-79
2022/10/10 11:42:18;;;;;;;10.20;9.90;;;19.60;99.90;;;;;;5095493;28;20279;-80
2022/10/10 11:44:51;;;;;;;10.43;10.13;;;19.20;99.90;;;;;;5103565;28;20241;-79
2022/10/10 11:47:28;;;;;;;10.30;10.00;;;18.80;99.90;;;;;;5110530;28;20299;-78
2022/10/10 11:50:03;;;;;;;10.10;9.80;;;18.60;99.90;;;;;;5111423;28;20249;-78
2022/10/10 11:52:39;;;;;;;9.70;9.40;;;18.50;99.90;;;;;;5103502;28;20236;-78
2022/10/10 11:55:18;;;;;;;9.57;9.27;;;18.30;99.90;;;;;;5103813;28;20225;-77
2022/10/10 11:57:59;;;;;;;9.65;9.35;;;18.20;99.90;;;;;;5106161;28;20240;-78
2022/10/10 12:00:29;;;;;;;9.38;9.07;;;18.10;99.90;;;;;;5106731;28;20263;-79
2022/10/10 12:02:58;;;;;;;9.55;9.25;;;18.00;99.90;;;;;;5102897;28;20265;-78
2022/10/10 12:05:28;;;;;;;9.35;9.05;;;18.00;99.90;;;;;;5086550;28;20217;-79
2022/10/10 12:08:09;;;;;;;9.68;9.38;;;18.00;99.90;;;;;;5105710;28;20313;-79
2022/10/10 12:10:43;;;;;;;9.60;9.30;;;18.00;99.90;;;;;;5114284;28;20237;-78
2022/10/10 12:13:27;;;;;;;9.77;9.48;;;17.90;99.90;;;;;;5116081;28;20293;-79
2022/10/10 12:15:57;;;;;;;9.93;9.63;;;17.90;99.90;;;;;;5116234;28;20218;-79
2022/10/10 12:18:30;;;;;;;9.70;9.40;;;17.90;99.90;;;;;;5116355;28;20289;-79
2022/10/10 12:21:08;;;;;;;9.90;9.60;;;17.90;99.90;;;;;;5114909;28;20230;-80
2022/10/10 12:23:36;;;;;;;10.10;9.80;;;18.00;99.90;;;;;;5098411;28;20289;-79
2022/10/10 12:26:04;;;;;;;10.20;9.90;;;18.10;99.90;;;;;;5094891;28;20241;-79
2022/10/10 12:28:57;;;;;;;10.02;9.73;;;18.30;99.90;;;;;;5089243;28;20234;-81
2022/10/10 12:31:31;;;;;;;10.50;10.20;;;18.40;99.90;;;;;;5086707;28;20226;-78
2022/10/10 12:34:13;;;;;;;10.25;9.95;;;18.80;99.90;;;;;;5082799;28;20218;-78
2022/10/10 12:37:11;;;;;;;10.10;9.80;;;19.40;99.90;;;;;;5083672;28;20246;-79
2022/10/10 12:40:18;;;;;;;10.30;10.00;;;20.00;99.90;;;;;;5081371;28;20234;-79
2022/10/10 12:43:23;;;;;;;10.48;10.18;;;20.60;99.90;;;;;;5106904;28;20324;-80
2022/10/10 12:46:19;;;;;;;10.48;10.18;;;21.00;99.90;;;;;;5109363;28;20220;-80
2022/10/10 12:49:03;;;;;;;9.70;9.40;;;21.10;99.90;;;;;;5113133;28;20284;-80
2022/10/10 12:51:35;;;;;;;9.63;9.32;;;21.60;99.90;;;;;;5108324;28;20732;-77
2022/10/10 12:54:05;;;;;;;9.70;9.40;;;22.30;99.90;;;;;;5102818;28;20244;-78
2022/10/10 12:56:43;;;;;;;9.68;9.38;;;22.50;99.90;;;;;;5100323;28;20222;-79
2022/10/10 12:59:20;;;;;;;9.80;9.50;;;22.30;99.90;;;;;;5100123;28;20301;-79
2022/10/10 13:01:56;;;;;;;9.63;9.32;;;22.10;99.90;;;;;;5104994;28;20240;-78
2022/10/10 13:04:25;;;;;;;9.52;9.23;;;21.60;99.90;;;;;;5081411;28;20229;-78
2022/10/10 13:06:56;;;;;;;10.00;9.70;;;21.40;99.90;;;;;;5081834;28;20320;-79
2022/10/10 13:09:26;;;;;;;9.95;9.65;;;21.30;99.90;;;;;;5089724;28;20220;-79
2022/10/10 13:11:58;;;;;;;9.90;9.60;;;21.10;99.90;;;;;;5101710;28;20244;-78
2022/10/10 13:14:38;;;;;;;9.90;9.60;;;20.70;99.90;;;;;;5095739;28;20294;-78
2022/10/10 13:17:23;;;;;;;9.95;9.65;;;20.50;99.90;;;;;;5095377;28;20233;-77